Time;durP1;ratioP1;P1;durP2;ratioP2;P2;SDS_P1;SDS_P2;PMS_P1;PMS_P2;Temp;Humidity;BMP_temperature;BMP_pressure;BME280_temperature;BME280_humidity;BME280_pressure;Samples;Min_cycle;Max_cycle;Signal;HPM_P1;HPM_P2
2023/12/27 00:01:51;;;;;;;4.73;3.90;;;;;;;13.69;60.50;99369.41;6952960;28;20782;-76
2023/12/27 00:05:13;;;;;;;5.47;4.30;;;;;;;13.33;60.65;99369.03;6970564;28;20348;-76
2023/12/27 00:08:35;;;;;;;5.63;4.60;;;;;;;13.35;60.82;99385.09;6970188;28;20202;-77
2023/12/27 00:11:57;;;;;;;6.13;4.23;;;;;;;13.48;60.98;99374.25;6970734;28;20218;-74
2023/12/27 00:15:19;;;;;;;7.00;4.63;;;;;;;13.46;61.10;99371.75;6972281;28;20236;-75
2023/12/27 00:18:41;;;;;;;12.47;4.80;;;;;;;13.59;60.10;99357.34;6971762;28;20209;-74
2023/12/27 00:22:02;;;;;;;4.83;3.83;;;;;;;13.52;60.37;99372.78;6970696;28;20360;-74
2023/12/27 00:25:24;;;;;;;11.07;4.47;;;;;;;13.41;60.40;99363.44;6970683;28;20675;-74
2023/12/27 00:28:45;;;;;;;5.37;3.90;;;;;;;13.39;60.09;99361.97;6970447;28;20297;-76
2023/12/27 00:32:11;;;;;;;6.70;3.97;;;;;;;13.25;60.34;99354.88;6970175;28;20703;-74
2023/12/27 00:35:32;;;;;;;6.67;3.93;;;;;;;12.02;64.37;99352.69;6972159;28;20195;-74
2023/12/27 00:38:54;;;;;;;6.93;3.77;;;;;;;12.93;62.23;99356.50;6971295;28;20206;-75
2023/12/27 00:42:15;;;;;;;7.63;3.80;;;;;;;12.76;62.22;99365.22;6970332;28;20382;-74
2023/12/27 00:45:37;;;;;;;6.30;3.33;;;;;;;12.99;62.03;99371.13;6964396;28;20207;-74
2023/12/27 00:48:59;;;;;;;8.27;4.20;;;;;;;12.85;61.91;99380.22;6970733;28;20202;-74
2023/12/27 00:52:21;;;;;;;6.33;3.83;;;;;;;12.91;61.32;99369.41;6969971;28;20348;-74
2023/12/27 00:55:43;;;;;;;6.30;3.53;;;;;;;12.51;62.84;99364.13;6971029;28;20313;-74
2023/12/27 00:59:04;;;;;;;6.07;3.80;;;;;;;12.48;62.82;99345.59;6971015;28;20226;-75
2023/12/27 01:02:26;;;;;;;7.70;4.00;;;;;;;12.45;63.54;99349.53;6969742;28;20317;-74
2023/12/27 01:05:49;;;;;;;4.60;3.33;;;;;;;12.83;62.31;99366.06;6969854;28;20688;-74
2023/12/27 01:09:10;;;;;;;7.40;4.00;;;;;;;12.97;60.92;99370.47;6970127;28;20330;-76
2023/12/27 01:12:31;;;;;;;6.63;3.83;;;;;;;12.24;63.06;99375.88;6970089;28;20313;-74
2023/12/27 01:15:53;;;;;;;6.83;3.70;;;;;;;12.38;62.86;99362.22;6970715;28;20243;-74
2023/12/27 01:19:14;;;;;;;5.80;3.40;;;;;;;12.62;62.47;99355.44;6969359;28;20347;-75
2023/12/27 01:22:37;;;;;;;3.43;3.13;;;;;;;12.91;62.00;99366.72;6967890;28;20375;-75
2023/12/27 01:25:59;;;;;;;6.00;4.17;;;;;;;12.63;61.69;99362.50;6967122;28;20255;-74
2023/12/27 01:29:20;;;;;;;7.53;3.70;;;;;;;12.67;62.33;99367.28;6967339;28;20270;-74
2023/12/27 01:32:42;;;;;;;5.00;3.97;;;;;;;12.97;61.35;99370.47;6967804;28;20230;-75
2023/12/27 01:36:06;;;;;;;8.23;4.07;;;;;;;12.84;61.71;99357.75;6968009;28;20206;-75
2023/12/27 01:39:29;;;;;;;4.67;3.20;;;;;;;13.16;60.92;99372.38;6967919;28;20198;-74
2023/12/27 01:42:51;;;;;;;6.07;2.67;;;;;;;12.99;61.18;99366.53;6968272;28;20230;-74
2023/12/27 01:46:12;;;;;;;4.57;3.10;;;;;;;12.70;61.49;99358.75;6969267;28;20255;-74
2023/12/27 01:49:34;;;;;;;4.97;3.17;;;;;;;12.81;61.72;99368.97;6968872;28;20202;-75
2023/12/27 01:52:55;;;;;;;3.90;3.37;;;;;;;13.03;60.93;99348.00;6969742;28;20464;-75
2023/12/27 01:56:18;;;;;;;5.57;3.13;;;;;;;13.10;60.57;99367.81;6968979;28;20274;-74
2023/12/27 01:59:40;;;;;;;3.83;3.10;;;;;;;12.78;60.96;99368.56;6965589;28;20301;-75
2023/12/27 02:03:01;;;;;;;7.83;3.13;;;;;;;12.84;60.77;99360.47;6968686;28;20368;-75
2023/12/27 02:06:23;;;;;;;5.23;3.00;;;;;;;12.93;60.80;99356.50;6969278;28;20352;-74
2023/12/27 02:09:45;;;;;;;4.50;2.87;;;;;;;13.02;60.32;99352.59;6968726;28;20331;-75
2023/12/27 02:13:08;;;;;;;2.77;2.50;;;;;;;12.91;60.67;99357.75;6968825;28;20233;-75
2023/12/27 02:16:30;;;;;;;3.30;2.57;;;;;;;12.85;60.87;99372.09;6967299;28;20202;-75
2023/12/27 02:19:51;;;;;;;3.27;2.70;;;;;;;13.03;60.21;99354.25;6965924;28;20705;-74
2023/12/27 02:23:14;;;;;;;3.67;3.27;;;;;;;12.67;60.97;99369.16;6968064;28;20287;-74
2023/12/27 02:26:37;;;;;;;6.03;3.10;;;;;;;12.48;61.77;99361.81;6968424;28;20259;-74
2023/12/27 02:29:59;;;;;;;5.67;3.07;;;;;;;12.83;60.90;99353.38;6967780;28;20309;-74
2023/12/27 02:33:20;;;;;;;3.77;3.00;;;;;;;12.99;60.30;99349.47;6968846;28;20341;-75
2023/12/27 02:36:41;;;;;;;7.53;3.70;;;;;;;12.89;60.25;99343.59;6967856;28;20340;-74
2023/12/27 02:40:03;;;;;;;5.67;3.50;;;;;;;12.91;60.31;99352.31;6961029;28;20289;-75
2023/12/27 02:43:26;;;;;;;6.50;3.37;;;;;;;12.83;60.16;99352.53;6968233;28;20250;-74
2023/12/27 02:46:48;;;;;;;5.33;3.13;;;;;;;12.42;60.80;99341.84;6968721;28;20367;-74
2023/12/27 02:50:10;;;;;;;5.80;3.00;;;;;;;12.75;60.48;99348.16;6967755;28;20340;-74
2023/12/27 02:53:31;;;;;;;3.40;2.77;;;;;;;12.58;61.14;99352.28;6967651;28;20408;-75
2023/12/27 02:56:52;;;;;;;4.43;3.27;;;;;;;12.65;61.03;99353.16;6971997;28;20351;-75
2023/12/27 03:00:16;;;;;;;5.00;3.23;;;;;;;12.75;61.04;99344.63;6973187;28;20772;-74
2023/12/27 03:03:38;;;;;;;4.27;3.40;;;;;;;12.72;61.00;99335.03;6973697;28;20317;-74
2023/12/27 03:06:59;;;;;;;5.93;3.30;;;;;;;12.60;61.07;99335.84;6974128;28;20348;-74
2023/12/27 03:10:21;;;;;;;4.60;3.30;;;;;;;12.47;61.41;99322.28;6972869;28;20693;-75
2023/12/27 03:13:42;;;;;;;5.63;3.13;;;;;;;12.75;61.02;99304.84;6971558;28;20371;-74
2023/12/27 03:17:05;;;;;;;4.57;3.40;;;;;;;12.76;60.59;99306.50;6972643;28;20690;-74
2023/12/27 03:20:27;;;;;;;4.13;3.03;;;;;;;12.67;60.74;99312.34;6972931;28;21023;-74
2023/12/27 03:23:48;;;;;;;3.10;2.80;;;;;;;12.88;59.58;99306.75;6973464;28;20363;-74
2023/12/27 03:27:10;;;;;;;3.73;2.60;;;;;;;12.79;59.84;99321.50;6973442;28;20297;-75
2023/12/27 03:30:31;;;;;;;6.63;3.10;;;;;;;12.83;60.00;99311.94;6967432;28;20272;-75
2023/12/27 03:33:54;;;;;;;4.07;3.00;;;;;;;12.85;60.08;99297.16;6971916;28;20384;-74
2023/12/27 03:37:16;;;;;;;3.60;2.73;;;;;;;12.89;59.90;99308.41;6972091;28;20205;-75
2023/12/27 03:40:38;;;;;;;4.90;2.90;;;;;;;12.91;59.21;99301.75;6971369;28;20699;-75
2023/12/27 03:43:59;;;;;;;3.80;2.90;;;;;;;12.95;58.99;99305.75;6972196;28;20320;-74
2023/12/27 03:47:21;;;;;;;5.27;3.40;;;;;;;12.64;60.04;99299.22;6972337;28;20601;-74
2023/12/27 03:50:43;;;;;;;5.00;3.53;;;;;;;12.49;60.95;99302.13;6971689;28;20677;-74
2023/12/27 03:54:05;;;;;;;3.43;2.90;;;;;;;12.55;61.04;99303.16;6969585;28;20231;-75
2023/12/27 03:57:26;;;;;;;5.80;3.17;;;;;;;12.62;60.66;99304.03;6972290;28;20268;-75
2023/12/27 04:00:48;;;;;;;7.43;3.50;;;;;;;12.86;60.48;99296.13;6971479;28;20416;-75
2023/12/27 04:04:10;;;;;;;5.03;2.87;;;;;;;12.92;60.01;99297.19;6971681;28;20316;-74
2023/12/27 04:07:33;;;;;;;4.77;3.43;;;;;;;12.73;60.51;99306.94;6971201;28;20278;-75
2023/12/27 04:10:55;;;;;;;3.40;3.03;;;;;;;12.89;60.14;99301.13;6971369;28;20351;-74
2023/12/27 04:14:17;;;;;;;4.47;3.60;;;;;;;12.67;60.20;99296.09;6971726;28;20317;-75
2023/12/27 04:17:39;;;;;;;5.10;3.10;;;;;;;12.59;60.63;99299.84;6972096;28;20289;-76
2023/12/27 04:21:01;;;;;;;4.50;3.27;;;;;;;12.78;60.04;99293.63;6971122;28;20332;-74
2023/12/27 04:24:23;;;;;;;5.10;3.13;;;;;;;12.75;60.11;99287.81;6971254;28;20369;-74
2023/12/27 04:27:45;;;;;;;4.00;2.90;;;;;;;12.70;59.63;99284.88;6970094;28;20337;-74
2023/12/27 04:31:06;;;;;;;3.30;3.10;;;;;;;12.71;60.00;99286.53;6971282;28;20202;-77
2023/12/27 04:34:28;;;;;;;5.70;3.50;;;;;;;12.33;60.82;99271.94;6971579;28;20387;-74
2023/12/27 04:37:49;;;;;;;8.07;3.60;;;;;;;12.62;60.23;99275.09;6971456;28;20259;-74
2023/12/27 04:41:12;;;;;;;6.93;3.57;;;;;;;12.67;60.61;99259.06;6967516;28;20691;-77
2023/12/27 04:44:34;;;;;;;4.17;3.20;;;;;;;12.74;60.30;99268.00;6970432;28;20307;-74
2023/12/27 04:47:55;;;;;;;6.57;3.40;;;;;;;12.63;60.38;99257.00;6969951;28;20301;-75
2023/12/27 04:51:17;;;;;;;4.30;3.40;;;;;;;12.66;60.65;99268.22;6970504;28;20331;-74
2023/12/27 04:54:38;;;;;;;5.20;3.23;;;;;;;12.31;61.18;99266.72;6970866;28;20367;-74
2023/12/27 04:58:01;;;;;;;5.17;3.33;;;;;;;12.35;61.67;99254.47;6971078;28;20281;-74
2023/12/27 05:01:22;;;;;;;5.57;3.33;;;;;;;12.32;61.48;99264.84;6953643;28;20732;-74
2023/12/27 05:04:44;;;;;;;3.67;3.27;;;;;;;12.59;60.74;99250.31;6969948;28;20324;-75
2023/12/27 05:08:06;;;;;;;6.27;3.00;;;;;;;12.07;60.46;99266.44;6969943;28;20696;-75
2023/12/27 05:11:27;;;;;;;6.67;3.47;;;;;;;12.55;60.40;99265.28;6970943;28;20292;-76
2023/12/27 05:14:50;;;;;;;4.50;4.03;;;;;;;12.40;59.98;99280.88;6970592;28;20284;-75
2023/12/27 05:18:12;;;;;;;6.67;3.47;;;;;;;12.51;60.00;99273.00;6967095;28;20293;-76
2023/12/27 05:21:33;;;;;;;3.73;2.80;;;;;;;12.54;58.89;99263.63;6968938;28;21004;-75
2023/12/27 05:24:55;;;;;;;3.50;3.20;;;;;;;12.22;59.72;99264.41;6969881;28;20210;-75
2023/12/27 05:28:16;;;;;;;7.40;4.40;;;;;;;12.14;60.22;99275.41;6970279;28;20615;-75
2023/12/27 05:31:39;;;;;;;4.47;3.10;;;;;;;12.25;59.74;99281.06;6969540;28;20309;-77
2023/12/27 05:35:01;;;;;;;5.70;3.23;;;;;;;12.38;59.64;99281.09;6969859;28;20377;-75
2023/12/27 05:38:22;;;;;;;3.70;3.40;;;;;;;12.07;59.81;99264.59;6968582;28;20249;-75
2023/12/27 05:41:44;;;;;;;7.03;3.43;;;;;;;12.08;60.15;99268.94;6969303;28;20230;-75
2023/12/27 05:45:06;;;;;;;7.20;4.97;;;;;;;11.91;60.16;99269.50;6969408;28;20292;-75
2023/12/27 05:48:28;;;;;;;5.33;4.67;;;;;;;11.82;60.33;99278.81;6969186;28;20352;-74
2023/12/27 05:51:50;;;;;;;8.17;5.10;;;;;;;11.72;60.85;99271.09;6966174;28;21020;-75
2023/12/27 05:55:11;;;;;;;6.17;4.63;;;;;;;11.35;60.56;99281.47;6960712;28;20304;-75
2023/12/27 05:58:33;;;;;;;7.13;4.00;;;;;;;11.42;61.21;99268.81;6968592;28;20267;-75
2023/12/27 06:01:54;;;;;;;6.87;3.83;;;;;;;11.36;61.19;99248.88;6968693;28;20840;-76
2023/12/27 06:05:19;;;;;;;3.73;3.43;;;;;;;11.62;61.10;99265.22;6968905;28;20325;-74
2023/12/27 06:08:40;;;;;;;6.67;3.97;;;;;;;11.62;60.71;99242.81;6969098;28;20209;-77
2023/12/27 06:12:02;;;;;;;4.53;3.83;;;;;;;11.67;60.03;99253.81;6967692;28;20300;-74
2023/12/27 06:15:23;;;;;;;4.30;3.20;;;;;;;11.90;59.71;99244.38;6942439;28;20293;-75
2023/12/27 06:18:45;;;;;;;3.43;3.03;;;;;;;11.56;60.03;99252.50;6941381;28;20215;-74
2023/12/27 06:22:08;;;;;;;4.87;3.63;;;;;;;11.67;59.80;99260.06;6940992;28;20888;-75
2023/12/27 06:25:29;;;;;;;5.07;3.40;;;;;;;11.38;59.62;99246.78;6941428;28;20214;-75
2023/12/27 06:28:51;;;;;;;4.00;3.33;;;;;;;11.56;59.87;99241.69;6963179;28;20682;-76
2023/12/27 06:32:12;;;;;;;6.53;3.43;;;;;;;11.64;59.67;99241.53;6966749;28;20363;-75
2023/12/27 06:35:34;;;;;;;5.67;3.00;;;;;;;11.50;59.53;99217.34;6968221;28;20731;-75
2023/12/27 06:38:57;;;;;;;4.97;3.40;;;;;;;11.48;59.79;99222.97;6968989;28;20297;-75
2023/12/27 06:42:18;;;;;;;6.43;3.47;;;;;;;11.25;59.73;99206.25;6967820;28;20241;-74
2023/12/27 06:45:40;;;;;;;5.33;3.17;;;;;;;10.88;60.40;99219.28;6962370;28;20203;-75
2023/12/27 06:49:02;;;;;;;5.30;3.77;;;;;;;11.06;60.92;99227.72;6967962;28;20339;-75
2023/12/27 06:52:23;;;;;;;5.57;3.87;;;;;;;11.01;60.69;99225.59;6967252;28;20313;-75
2023/12/27 06:55:46;;;;;;;6.43;3.63;;;;;;;10.69;61.70;99219.97;6968308;28;20307;-74
2023/12/27 06:59:07;;;;;;;4.63;3.60;;;;;;;11.18;60.75;99228.81;6968521;28;20696;-74
2023/12/27 07:02:29;;;;;;;6.57;4.23;;;;;;;11.29;60.34;99234.50;6967825;28;20270;-75
2023/12/27 07:05:50;;;;;;;5.17;3.67;;;;;;;11.31;60.52;99228.88;6967399;28;20344;-75
2023/12/27 07:09:12;;;;;;;4.63;4.07;;;;;;;11.18;60.57;99239.59;6966210;28;20656;-79
2023/12/27 07:12:35;;;;;;;7.23;4.20;;;;;;;11.43;59.92;99225.44;6967770;28;20312;-74
2023/12/27 07:15:57;;;;;;;4.90;3.50;;;;;;;11.07;59.36;99235.63;6966401;28;20309;-74
2023/12/27 07:19:19;;;;;;;4.90;3.50;;;;;;;11.06;59.85;99227.72;6967503;28;20241;-74
2023/12/27 07:22:40;;;;;;;6.17;4.00;;;;;;;10.94;60.44;99230.13;6966997;28;20316;-74
2023/12/27 07:26:04;;;;;;;4.63;3.30;;;;;;;11.21;60.19;99250.03;6958712;28;20345;-74
2023/12/27 07:29:26;;;;;;;3.63;3.03;;;;;;;11.21;59.36;99250.03;6965902;28;20206;-75
2023/12/27 07:32:48;;;;;;;4.03;3.30;;;;;;;10.95;59.89;99253.38;6967281;28;21014;-74
2023/12/27 07:36:09;;;;;;;4.50;3.40;;;;;;;10.86;60.43;99253.72;6963643;28;20341;-75
2023/12/27 07:39:32;;;;;;;3.97;3.50;;;;;;;10.86;60.14;99251.84;6959502;28;20256;-76
2023/12/27 07:42:54;;;;;;;5.73;3.20;;;;;;;10.68;60.98;99245.28;6969489;28;20350;-77
2023/12/27 07:46:17;;;;;;;3.83;3.53;;;;;;;10.92;61.35;99244.84;6968164;28;20209;-77
2023/12/27 07:49:38;;;;;;;4.77;4.20;;;;;;;10.86;60.91;99240.22;6971600;28;20354;-77
2023/12/27 07:53:00;;;;;;;5.97;4.27;;;;;;;11.10;60.59;99234.38;6971958;28;20287;-77
2023/12/27 07:56:21;;;;;;;4.43;3.27;;;;;;;11.23;60.12;99234.47;6946920;28;20637;-74
2023/12/27 07:59:43;;;;;;;6.03;4.20;;;;;;;11.20;60.56;99256.44;6956646;28;20301;-77
2023/12/27 08:03:08;;;;;;;7.53;3.70;;;;;;;10.92;61.23;99248.34;6970156;28;20253;-75
2023/12/27 08:06:29;;;;;;;5.90;4.13;;;;;;;10.78;61.76;99262.78;6972281;28;20829;-79
2023/12/27 08:09:51;;;;;;;5.60;3.50;;;;;;;11.34;61.45;99275.22;6971735;28;20404;-75
2023/12/27 08:13:12;;;;;;;4.20;3.83;;;;;;;11.58;60.53;99265.81;6963804;28;20305;-75
2023/12/27 08:16:34;;;;;;;8.83;5.40;;;;;;;11.29;60.13;99256.09;6965923;28;20458;-75
2023/12/27 08:19:57;;;;;;;7.67;5.67;;;;;;;11.59;59.71;99248.59;6970779;28;20747;-76
2023/12/27 08:23:18;;;;;;;5.50;3.87;;;;;;;11.66;59.37;99252.16;6970907;28;20393;-75
2023/12/27 08:26:40;;;;;;;4.57;3.83;;;;;;;11.34;59.29;99255.50;6971324;28;20308;-77
2023/12/27 08:30:04;;;;;;;4.43;3.43;;;;;;;11.18;59.83;99259.34;6970709;28;20333;-75
2023/12/27 08:33:25;;;;;;;5.37;3.80;;;;;;;11.47;59.85;99255.56;6952247;28;20222;-75
2023/12/27 08:36:48;;;;;;;6.73;4.00;;;;;;;11.55;60.02;99256.22;6958906;28;20425;-75
2023/12/27 08:40:11;;;;;;;5.30;4.10;;;;;;;11.86;59.81;99261.19;6969985;28;20295;-76
2023/12/27 08:43:33;;;;;;;9.17;8.27;;;;;;;12.07;59.33;99253.78;6971281;28;20230;-77
2023/12/27 08:46:54;;;;;;;7.87;6.60;;;;;;;12.24;59.34;99252.38;6968928;28;20204;-81
2023/12/27 08:50:16;;;;;;;5.23;4.70;;;;;;;12.10;59.08;99212.00;6965359;28;20209;-75
2023/12/27 08:53:39;;;;;;;6.40;3.97;;;;;;;12.38;58.27;99213.47;6967074;28;20271;-79
2023/12/27 08:57:01;;;;;;;4.70;4.17;;;;;;;12.55;57.88;99228.28;6969175;28;20277;-75
2023/12/27 09:00:22;;;;;;;5.50;3.53;;;;;;;12.87;57.97;99213.06;6970483;28;20217;-75
2023/12/27 09:03:44;;;;;;;6.53;3.70;;;;;;;13.05;56.23;99219.53;6970122;28;20360;-75
2023/12/27 09:07:05;;;;;;;5.23;3.40;;;;;;;13.02;56.65;99216.41;6953073;28;20336;-76
2023/12/27 09:10:28;;;;;;;3.73;3.23;;;;;;;13.31;55.68;99202.38;6968099;28;20684;-75
2023/12/27 09:13:50;;;;;;;2.93;2.57;;;;;;;13.76;55.05;99201.38;6969463;28;20311;-76
2023/12/27 09:17:11;;;;;;;4.53;3.47;;;;;;;14.07;54.45;99209.56;6966757;28;20238;-77
2023/12/27 09:20:33;;;;;;;5.10;3.00;;;;;;;14.24;53.29;99197.19;6968995;28;20214;-75
2023/12/27 09:23:55;;;;;;;2.80;2.60;;;;;;;14.32;52.40;99192.31;6968323;28;20726;-76
2023/12/27 09:27:18;;;;;;;5.50;3.13;;;;;;;14.51;51.76;99204.91;6961410;28;20340;-76
2023/12/27 09:30:40;;;;;;;2.90;2.40;;;;;;;14.37;50.99;99207.94;6968164;28;20341;-76
2023/12/27 09:34:02;;;;;;;4.30;2.37;;;;;;;14.49;50.30;99185.31;6969156;28;20256;-77
2023/12/27 09:37:23;;;;;;;4.17;2.73;;;;;;;14.51;50.02;99180.50;6969009;28;20204;-76
2023/12/27 09:40:45;;;;;;;3.70;2.80;;;;;;;14.83;49.88;99184.81;6968990;28;20215;-76
2023/12/27 09:44:09;;;;;;;4.10;3.07;;;;;;;15.17;48.53;99183.44;6969091;28;20260;-77
2023/12/27 09:47:30;;;;;;;6.10;3.03;;;;;;;14.93;48.85;99181.59;6969506;28;20249;-77
2023/12/27 09:50:52;;;;;;;4.83;3.37;;;;;;;14.45;49.04;99191.41;6968536;28;20268;-77
2023/12/27 09:54:16;;;;;;;5.77;3.37;;;;;;;14.49;48.68;99176.34;6967996;28;20641;-76
2023/12/27 09:57:38;;;;;;;3.00;2.80;;;;;;;15.02;48.05;99185.66;6959129;28;20215;-76
2023/12/27 10:01:02;;;;;;;7.30;3.13;;;;;;;15.00;48.40;99196.78;6965209;28;20692;-77
2023/12/27 10:04:29;;;;;;;8.60;3.40;;;;;;;15.14;46.84;99181.16;6968098;28;20283;-76
2023/12/27 10:07:51;;;;;;;4.97;2.87;;;;;;;15.34;45.92;99174.47;6968706;28;20256;-76
2023/12/27 10:11:13;;;;;;;7.53;3.33;;;;;;;15.38;46.99;99164.84;6968238;28;20644;-78
2023/12/27 10:14:37;;;;;;;18.20;10.03;;;;;;;15.71;46.39;99162.53;6966225;28;20265;-76
2023/12/27 10:17:59;;;;;;;4.80;3.03;;;;;;;16.16;45.07;99154.78;6968811;28;20210;-78
2023/12/27 10:21:21;;;;;;;6.27;2.73;;;;;;;16.44;43.71;99142.22;6962288;28;20360;-76
2023/12/27 10:24:42;;;;;;;4.87;2.70;;;;;;;16.33;44.39;99129.38;6967788;28;20780;-78
2023/12/27 10:28:04;;;;;;;6.40;3.23;;;;;;;16.57;42.38;99138.47;6968591;28;20242;-78
2023/12/27 10:31:26;;;;;;;3.67;2.53;;;;;;;16.56;41.87;99136.78;6970929;28;20297;-83
2023/12/27 10:34:50;;;;;;;4.93;2.50;;;;;;;16.42;42.30;99119.88;6968479;28;20207;-80
2023/12/27 10:38:11;;;;;;;4.17;2.80;;;;;;;15.39;43.58;99092.31;6963028;28;20271;-80
2023/12/27 10:41:33;;;;;;;3.53;2.70;;;;;;;15.14;44.07;99088.81;6974739;28;20339;-80
2023/12/27 10:44:55;;;;;;;3.70;2.60;;;;;;;15.40;44.36;99070.31;6964621;28;20233;-81
2023/12/27 10:48:17;;;;;;;4.80;2.70;;;;;;;15.14;44.21;99073.34;6969655;28;20247;-79
2023/12/27 10:51:41;;;;;;;6.23;2.37;;;;;;;15.96;42.58;99078.09;6970158;28;20634;-79
2023/12/27 10:55:03;;;;;;;3.57;2.50;;;;;;;16.62;39.67;99090.41;6970341;28;20298;-77
2023/12/27 10:58:25;;;;;;;4.90;3.27;;;;;;;16.85;39.23;99078.66;6969105;28;20670;-78
2023/12/27 11:01:47;;;;;;;4.07;2.47;;;;;;;17.16;39.66;99086.44;6969244;28;20236;-77
2023/12/27 11:05:09;;;;;;;3.47;2.27;;;;;;;17.47;39.38;99073.25;6967053;28;20231;-78
2023/12/27 11:08:33;;;;;;;3.00;2.70;;;;;;;16.48;39.22;99058.22;6965135;28;20205;-80
2023/12/27 11:11:56;;;;;;;2.67;2.30;;;;;;;17.04;39.33;99039.34;6966964;28;20229;-79
2023/12/27 11:15:19;;;;;;;4.97;2.37;;;;;;;17.23;36.50;99038.91;6966686;28;20845;-78
2023/12/27 11:18:40;;;;;;;3.83;2.60;;;;;;;17.60;37.04;99040.22;6997716;28;20678;-78
2023/12/27 11:22:02;;;;;;;2.93;2.20;;;;;;;17.01;36.40;99035.19;6986169;28;20373;-78
2023/12/27 11:25:25;;;;;;;4.13;2.30;;;;;;;17.04;35.65;99031.97;6971525;28;20241;-78
2023/12/27 11:28:47;;;;;;;2.67;2.37;;;;;;;17.67;34.67;99018.25;6972308;28;20299;-77
2023/12/27 11:32:08;;;;;;;2.67;2.27;;;;;;;18.03;34.79;99017.78;6970871;28;20265;-78
2023/12/27 11:35:31;;;;;;;2.60;2.40;;;;;;;17.62;34.11;99001.78;6971669;28;20217;-78
2023/12/27 11:38:54;;;;;;;2.73;2.17;;;;;;;18.22;33.87;99014.56;6972445;28;20281;-78
2023/12/27 11:42:17;;;;;;;3.97;2.20;;;;;;;18.02;34.81;99007.94;6972846;28;20314;-78
2023/12/27 11:45:59;;;;;;;2.87;2.10;;;;;;;18.65;32.58;98986.59;6959957;28;20275;-78
2023/12/27 11:49:20;;;;;;;2.80;2.40;;;;;;;18.40;33.90;98986.22;6944288;28;20206;-77
2023/12/27 11:52:44;;;;;;;4.47;2.30;;;;;;;18.43;32.13;98988.44;6971376;28;20316;-78
2023/12/27 11:56:06;;;;;;;3.33;2.57;;;;;;;17.78;34.78;98966.38;6970854;28;20620;-77
2023/12/27 11:59:29;;;;;;;2.60;2.40;;;;;;;18.54;33.74;98965.66;6971706;28;20298;-77
2023/12/27 12:02:57;;;;;;;4.03;2.53;;;;;;;17.09;35.69;98961.25;6970968;28;20255;-77
2023/12/27 12:06:35;;;;;;;4.33;2.37;;;;;;;17.34;33.71;98955.47;6970264;28;20668;-77
2023/12/27 12:09:57;;;;;;;2.60;2.40;;;;;;;17.67;33.10;98931.81;6969571;28;20255;-78
2023/12/27 12:13:19;;;;;;;3.43;2.63;;;;;;;17.49;35.84;98944.84;6958087;28;20236;-77
2023/12/27 12:16:42;;;;;;;2.93;2.70;;;;;;;17.54;34.95;98936.75;6958633;28;20300;-77
2023/12/27 12:20:04;;;;;;;3.03;2.73;;;;;;;17.31;34.13;98932.25;6968943;28;20742;-77
2023/12/27 12:23:29;;;;;;;4.73;2.67;;;;;;;17.64;35.32;98926.84;6945423;28;20332;-78
2023/12/27 12:26:50;;;;;;;4.50;2.80;;;;;;;17.69;35.81;98926.94;6966190;28;20350;-77
2023/12/27 12:30:12;;;;;;;2.83;2.37;;;;;;;18.01;36.08;98917.09;6969174;28;20349;-77
2023/12/27 12:33:35;;;;;;;4.07;2.70;;;;;;;18.10;35.83;98901.94;6967487;28;20227;-78
2023/12/27 12:36:58;;;;;;;2.50;2.27;;;;;;;18.27;36.26;98907.38;6964246;28;20207;-78
2023/12/27 12:40:20;;;;;;;4.53;2.73;;;;;;;17.89;36.30;98889.09;6957050;28;20659;-77
2023/12/27 12:43:43;;;;;;;3.73;3.07;;;;;;;17.41;35.65;98845.25;6954518;28;20976;-78
2023/12/27 12:47:05;;;;;;;4.17;2.60;;;;;;;17.80;35.46;98895.22;6943203;28;20206;-78
2023/12/27 12:50:28;;;;;;;5.27;3.03;;;;;;;17.51;35.33;98899.91;6966577;28;20249;-78
2023/12/27 12:53:49;;;;;;;4.03;2.80;;;;;;;17.53;36.33;98894.22;6970562;28;20311;-78
2023/12/27 12:57:11;;;;;;;7.37;4.53;;;;;;;17.93;36.72;98884.78;6968766;28;20342;-79
2023/12/27 13:00:32;;;;;;;5.50;2.83;;;;;;;18.29;35.35;98876.00;6968546;28;20299;-78
2023/12/27 13:03:54;;;;;;;4.23;2.70;;;;;;;18.46;35.59;98878.75;6969710;28;20359;-78
2023/12/27 13:07:17;;;;;;;5.10;3.37;;;;;;;17.99;36.86;98863.88;6968739;28;20335;-78
2023/12/27 13:10:38;;;;;;;4.87;2.83;;;;;;;18.12;35.65;98864.34;6980915;28;20339;-78
2023/12/27 13:14:00;;;;;;;5.07;2.97;;;;;;;18.33;35.85;98855.34;6971169;28;20382;-78
2023/12/27 13:17:22;;;;;;;4.17;2.77;;;;;;;18.13;36.13;98856.97;6959418;28;20811;-78
2023/12/27 13:20:43;;;;;;;5.93;2.90;;;;;;;17.44;37.55;98862.97;6967274;28;20587;-77
2023/12/27 13:24:07;;;;;;;3.27;2.93;;;;;;;17.49;37.74;98849.44;6968981;28;20596;-78
2023/12/27 13:27:28;;;;;;;7.03;3.00;;;;;;;17.57;38.31;98851.75;6969240;28;20270;-78
2023/12/27 13:30:49;;;;;;;3.77;2.87;;;;;;;17.15;37.95;98859.47;6968231;28;20231;-78
2023/12/27 13:34:11;;;;;;;4.30;2.87;;;;;;;17.56;38.31;98852.81;6967368;28;20805;-77
2023/12/27 13:37:33;;;;;;;4.30;2.63;;;;;;;17.88;37.85;98845.69;6969318;28;20350;-78
2023/12/27 13:40:55;;;;;;;3.87;2.80;;;;;;;17.84;37.21;98833.63;6945956;28;20683;-76
2023/12/27 13:44:17;;;;;;;3.33;2.80;;;;;;;17.70;37.58;98838.59;6957848;28;20313;-78
2023/12/27 13:47:38;;;;;;;5.53;2.97;;;;;;;17.73;37.33;98820.91;6956087;28;20242;-78
2023/12/27 13:51:00;;;;;;;4.77;2.77;;;;;;;17.62;37.25;98827.28;6962642;28;20287;-78
2023/12/27 13:54:21;;;;;;;4.20;2.63;;;;;;;17.68;36.48;98820.84;6967498;28;20247;-79
2023/12/27 13:57:44;;;;;;;3.33;2.47;;;;;;;17.48;37.21;98820.53;6964897;28;20305;-78
2023/12/27 14:01:06;;;;;;;3.43;3.07;;;;;;;17.47;38.26;98822.44;6965497;28;20736;-77
2023/12/27 14:04:27;;;;;;;3.87;2.70;;;;;;;17.56;37.48;98818.22;6961261;28;20275;-79
2023/12/27 14:07:49;;;;;;;6.30;2.83;;;;;;;17.53;38.82;98826.06;6971299;28;20266;-75
2023/12/27 14:11:10;;;;;;;4.13;2.80;;;;;;;17.48;38.91;98824.09;6968145;28;20257;-78
2023/12/27 14:14:33;;;;;;;5.60;2.90;;;;;;;17.34;38.70;98820.00;6966165;28;20823;-78
2023/12/27 14:17:55;;;;;;;3.50;2.80;;;;;;;17.33;39.23;98815.63;6967579;28;20730;-78
2023/12/27 14:21:16;;;;;;;4.60;2.73;;;;;;;17.00;41.11;98828.41;6967906;28;20302;-78
2023/12/27 14:24:38;;;;;;;4.83;2.70;;;;;;;16.73;42.25;98830.91;6964476;28;20227;-78
2023/12/27 14:28:00;;;;;;;7.00;2.90;;;;;;;16.73;41.98;98830.91;6959014;28;20290;-78
2023/12/27 14:31:23;;;;;;;5.60;2.93;;;;;;;16.29;43.17;98828.88;6961684;28;20681;-78
2023/12/27 14:34:44;;;;;;;3.43;2.70;;;;;;;16.32;42.82;98833.88;6967398;28;20758;-79
2023/12/27 14:38:07;;;;;;;7.73;2.60;;;;;;;16.45;42.75;98838.25;6966789;28;20344;-78
2023/12/27 14:41:29;;;;;;;5.10;3.57;;;;;;;16.43;43.46;98822.16;6962366;28;20207;-78
2023/12/27 14:44:50;;;;;;;6.67;4.10;;;;;;;16.33;43.89;98818.38;6968182;28;20227;-78
2023/12/27 14:48:13;;;;;;;8.27;6.73;;;;;;;15.78;45.37;98819.88;6969080;28;20298;-78
2023/12/27 14:51:35;;;;;;;14.27;9.40;;;;;;;15.82;46.19;98821.06;6965293;28;20789;-78
2023/12/27 14:54:56;;;;;;;17.27;13.73;;;;;;;15.49;47.28;98816.22;6966406;28;20248;-78
2023/12/27 14:58:18;;;;;;;28.20;20.17;;;;;;;15.51;47.52;98800.50;6964752;28;20290;-79
2023/12/27 15:01:39;;;;;;;28.03;20.57;;;;;;;15.43;47.70;98813.63;6971186;28;20363;-77
2023/12/27 15:05:02;;;;;;;22.57;15.63;;;;;;;15.15;48.62;98808.03;6969824;28;20278;-77
2023/12/27 15:08:24;;;;;;;20.47;13.30;;;;;;;15.24;48.66;98815.59;6967829;28;20727;-78
2023/12/27 15:11:46;;;;;;;12.00;10.30;;;;;;;15.24;48.63;98812.88;6972528;28;20783;-79
2023/12/27 15:15:08;;;;;;;9.47;6.70;;;;;;;15.24;48.46;98814.75;6964772;28;20290;-78
2023/12/27 15:18:30;;;;;;;7.63;5.40;;;;;;;14.70;49.49;98785.16;6973589;28;20332;-77
2023/12/27 15:21:55;;;;;;;8.40;5.33;;;;;;;14.77;49.72;98826.56;6969139;28;20606;-77
2023/12/27 15:25:17;;;;;;;7.70;5.47;;;;;;;14.61;50.01;98825.34;6970013;28;20233;-78
2023/12/27 15:28:38;;;;;;;8.87;6.57;;;;;;;14.16;50.99;98813.19;6977493;28;20728;-79
2023/12/27 15:32:00;;;;;;;8.43;7.00;;;;;;;13.48;53.13;98818.94;6971038;28;20275;-78
2023/12/27 15:35:21;;;;;;;9.50;6.73;;;;;;;13.88;52.20;98812.91;6968780;28;20352;-79
2023/12/27 15:38:46;;;;;;;7.57;6.73;;;;;;;13.65;52.46;98820.88;6970055;28;20344;-77
2023/12/27 15:42:07;;;;;;;11.13;6.90;;;;;;;13.40;52.69;98821.97;6968326;28;20229;-78
2023/12/27 15:45:29;;;;;;;9.90;6.17;;;;;;;13.20;53.45;98811.28;6972321;28;20280;-78
2023/12/27 15:48:51;;;;;;;9.07;6.70;;;;;;;13.39;53.14;98804.88;6972452;28;20238;-79
2023/12/27 15:52:12;;;;;;;9.53;6.53;;;;;;;13.66;52.01;98803.56;6971127;28;20249;-77